Time;durP1;ratioP1;P1;durP2;ratioP2;P2;SDS_P1;SDS_P2;PMS_P1;PMS_P2;Temp;Humidity;BMP_temperature;BMP_pressure;BME280_temperature;BME280_humidity;BME280_pressure;Samples;Min_cycle;Max_cycle;Signal;HPM_P1;HPM_P2
2022/11/06 00:00:36;;;;;;;;;;;15.20;50.00;;;;;;5060110;28;19960;-89
2022/11/06 00:03:02;;;;;;;;;;;15.20;49.90;;;;;;5068210;28;19931;-87
2022/11/06 00:08:12;;;;;;;;;;;15.20;49.80;;;;;;5061856;28;20339;-89
2022/11/06 00:10:38;;;;;;;;;;;15.20;49.80;;;;;;5065795;28;19960;-90
2022/11/06 00:13:03;;;;;;;;;;;15.20;49.80;;;;;;5062556;28;19914;-87
2022/11/06 00:15:29;;;;;;;;;;;15.20;49.70;;;;;;5055366;28;19928;-87
2022/11/06 00:17:55;;;;;;;;;;;15.10;49.80;;;;;;5067528;28;20352;-88
2022/11/06 00:20:20;;;;;;;;;;;15.10;49.80;;;;;;5072129;28;19920;-86
2022/11/06 00:22:46;;;;;;;;;;;15.00;49.90;;;;;;5063149;28;20371;-89
2022/11/06 00:25:12;;;;;;;;;;;14.90;50.00;;;;;;5072492;28;19932;-90
2022/11/06 00:27:42;;;;;;;;;;;14.80;50.10;;;;;;5061411;28;19913;-86
2022/11/06 00:30:10;;;;;;;;;;;14.80;50.20;;;;;;5068281;28;19916;-89
2022/11/06 00:32:36;;;;;;;;;;;14.70;50.30;;;;;;5080375;28;19998;-89
2022/11/06 00:35:01;;;;;;;;;;;14.70;50.40;;;;;;5058795;28;19937;-86
2022/11/06 00:37:27;;;;;;;;;;;14.70;50.60;;;;;;5078808;28;19908;-89
2022/11/06 00:39:52;;;;;;;;;;;14.70;50.60;;;;;;5062604;28;20395;-88
2022/11/06 00:42:18;;;;;;;;;;;14.70;50.70;;;;;;5053668;28;20315;-88
2022/11/06 00:44:43;;;;;;;;;;;14.70;50.70;;;;;;5059004;28;19923;-85
2022/11/06 00:47:10;;;;;;;;;;;14.70;50.70;;;;;;5061804;28;19932;-90
2022/11/06 00:49:36;;;;;;;;;;;14.70;50.90;;;;;;5057250;28;19920;-90
2022/11/06 00:52:01;;;;;;;;;;;14.80;50.90;;;;;;5072742;28;19924;-88
2022/11/06 00:54:27;;;;;;;;;;;14.80;50.70;;;;;;5064058;28;19924;-87
2022/11/06 00:56:52;;;;;;;;;;;14.80;50.70;;;;;;5054600;28;19909;-86
2022/11/06 00:59:18;;;;;;;;;;;14.80;50.70;;;;;;5052217;28;19909;-90
2022/11/06 01:01:44;;;;;;;;;;;14.80;50.50;;;;;;5055612;28;20379;-91
2022/11/06 01:04:11;;;;;;;;;;;14.90;50.50;;;;;;5056155;28;19909;-87
2022/11/06 01:06:38;;;;;;;;;;;14.90;50.50;;;;;;5063579;28;19971;-90
2022/11/06 01:09:04;;;;;;;;;;;15.00;50.40;;;;;;5072372;28;19908;-89
2022/11/06 01:11:35;;;;;;;;;;;15.00;50.30;;;;;;5072858;28;19920;-91
2022/11/06 01:14:01;;;;;;;;;;;15.00;50.30;;;;;;5073989;28;19920;-90
2022/11/06 01:16:27;;;;;;;;;;;15.00;50.20;;;;;;5072773;28;19923;-90
2022/11/06 01:18:53;;;;;;;;;;;15.00;50.20;;;;;;5072715;28;19954;-87
2022/11/06 01:21:23;;;;;;;;;;;15.10;50.10;;;;;;5067495;28;19927;-87
2022/11/06 01:23:53;;;;;;;;;;;15.10;50.10;;;;;;5053420;28;19913;-88
2022/11/06 01:26:19;;;;;;;;;;;15.10;50.10;;;;;;5052208;28;19921;-88
2022/11/06 01:28:44;;;;;;;;;;;15.10;50.00;;;;;;5052115;28;19931;-90
2022/11/06 01:31:11;;;;;;;;;;;15.10;50.00;;;;;;5054744;28;19920;-87
2022/11/06 01:33:37;;;;;;;;;;;15.00;50.20;;;;;;5062826;28;19958;-86
2022/11/06 01:36:03;;;;;;;;;;;15.00;50.00;;;;;;5072848;28;19920;-86
2022/11/06 01:38:31;;;;;;;;;;;15.10;50.10;;;;;;5074490;28;19916;-90
2022/11/06 01:40:56;;;;;;;;;;;15.10;50.00;;;;;;5072082;28;20398;-86
2022/11/06 01:43:24;;;;;;;;;;;15.10;50.00;;;;;;5072412;28;20090;-86
2022/11/06 01:45:51;;;;;;;;;;;15.10;50.10;;;;;;5059305;28;20283;-88
2022/11/06 01:48:18;;;;;;;;;;;15.10;50.10;;;;;;5052261;28;19909;-91
2022/11/06 01:50:46;;;;;;;;;;;15.10;50.10;;;;;;5068464;28;19990;-86
2022/11/06 01:53:14;;;;;;;;;;;15.10;50.00;;;;;;5075910;28;20600;-88
2022/11/06 01:55:44;;;;;;;;;;;15.10;50.10;;;;;;5072197;28;19952;-87
2022/11/06 01:58:14;;;;;;;;;;;15.10;50.10;;;;;;5072156;28;20330;-87
2022/11/06 02:00:40;;;;;;;;;;;15.00;50.10;;;;;;5071600;28;19916;-88
2022/11/06 02:03:06;;;;;;;;;;;15.00;50.20;;;;;;5068994;28;19913;-88
2022/11/06 02:05:32;;;;;;;;;;;15.00;50.20;;;;;;5062635;28;19988;-86
2022/11/06 02:07:59;;;;;;;;;;;15.00;50.30;;;;;;5071114;28;19915;-90
2022/11/06 02:10:25;;;;;;;;;;;14.90;50.20;;;;;;5057855;28;19917;-91
2022/11/06 02:13:04;;;;;;;;;;;14.80;50.30;;;;;;5051424;28;19931;-89
2022/11/06 02:15:37;;;;;;;;;;;14.80;50.40;;;;;;5051098;28;20055;-90
2022/11/06 02:18:03;;;;;;;;;;;14.70;50.60;;;;;;5051592;28;19909;-88
2022/11/06 02:20:36;;;;;;;;;;;14.60;50.90;;;;;;5057039;28;19917;-87
2022/11/06 02:23:17;;;;;;;;;;;14.70;50.90;;;;;;5064356;28;20756;-90
2022/11/06 02:25:58;;;;;;;;;;;14.70;51.00;;;;;;5070518;28;19924;-86
2022/11/06 02:28:27;;;;;;;;;;;14.70;51.10;;;;;;5051516;28;19913;-90
2022/11/06 02:30:54;;;;;;;;;;;14.70;51.00;;;;;;5051308;28;19975;-90
2022/11/06 02:33:32;;;;;;;;;;;14.70;50.90;;;;;;5056206;28;19908;-87
2022/11/06 02:36:01;;;;;;;;;;;14.80;50.90;;;;;;5063331;28;19921;-90
2022/11/06 02:38:35;;;;;;;;;;;14.70;50.90;;;;;;5068115;28;19908;-87
2022/11/06 02:41:03;;;;;;;;;;;14.70;51.00;;;;;;5068602;28;19960;-90
2022/11/06 02:43:41;;;;;;;;;;;14.60;51.00;;;;;;5060941;28;19923;-90
2022/11/06 02:46:12;;;;;;;;;;;14.60;51.10;;;;;;5069490;28;19923;-86
2022/11/06 02:48:40;;;;;;;;;;;14.50;51.20;;;;;;5067370;28;19920;-88
2022/11/06 02:51:11;;;;;;;;;;;14.50;51.20;;;;;;5064367;28;19923;-89
2022/11/06 02:53:38;;;;;;;;;;;14.40;51.30;;;;;;5060217;28;19939;-89
2022/11/06 02:56:08;;;;;;;;;;;14.40;51.30;;;;;;5064483;28;19917;-86
2022/11/06 02:58:54;;;;;;;;;;;14.40;51.30;;;;;;5057247;28;20548;-89
2022/11/06 03:01:49;;;;;;;;;;;14.40;51.30;;;;;;5058274;28;19921;-88
2022/11/06 03:04:17;;;;;;;;;;;14.30;51.50;;;;;;5045812;28;19913;-87
2022/11/06 03:06:51;;;;;;;;;;;14.30;51.60;;;;;;5059317;28;20010;-88
2022/11/06 03:09:21;;;;;;;;;;;14.20;51.70;;;;;;5058658;28;19912;-87
2022/11/06 03:11:52;;;;;;;;;;;14.20;51.80;;;;;;5056404;28;19917;-88
2022/11/06 03:14:28;;;;;;;;;;;14.10;52.00;;;;;;5061325;28;19982;-91
2022/11/06 03:16:57;;;;;;;;;;;14.10;52.00;;;;;;5062227;28;20003;-88
2022/11/06 03:19:32;;;;;;;;;;;14.00;51.90;;;;;;5052597;28;19921;-90
2022/11/06 03:22:06;;;;;;;;;;;14.00;51.90;;;;;;5055494;28;19948;-90
2022/11/06 03:24:40;;;;;;;;;;;14.00;52.10;;;;;;5064702;28;19917;-90
2022/11/06 03:27:08;;;;;;;;;;;13.80;52.40;;;;;;5055159;28;19919;-87
2022/11/06 03:29:38;;;;;;;;;;;13.80;52.60;;;;;;5066943;28;20363;-90
2022/11/06 03:32:13;;;;;;;;;;;13.80;52.60;;;;;;5069733;28;20807;-88
2022/11/06 03:34:41;;;;;;;;;;;13.80;52.60;;;;;;5057780;28;19925;-89
2022/11/06 03:37:19;;;;;;;;;;;13.80;52.60;;;;;;5060551;28;19942;-88
2022/11/06 03:39:48;;;;;;;;;;;13.70;52.80;;;;;;5061721;28;19955;-88
2022/11/06 03:42:16;;;;;;;;;;;13.70;52.80;;;;;;5064133;28;19923;-90
2022/11/06 03:44:46;;;;;;;;;;;13.70;52.90;;;;;;5064745;28;19917;-90
2022/11/06 03:47:17;;;;;;;;;;;13.70;53.10;;;;;;5071150;28;19912;-87
2022/11/06 03:49:45;;;;;;;;;;;13.70;53.20;;;;;;5064645;28;20069;-87
2022/11/06 03:52:16;;;;;;;;;;;13.70;53.00;;;;;;5056053;28;19916;-90
2022/11/06 03:54:45;;;;;;;;;;;13.70;53.10;;;;;;5054621;28;19943;-89
2022/11/06 03:57:20;;;;;;;;;;;13.70;53.20;;;;;;5051376;28;19909;-88
2022/11/06 03:59:48;;;;;;;;;;;13.70;53.10;;;;;;5051590;28;20421;-88
2022/11/06 04:02:15;;;;;;;;;;;13.70;53.10;;;;;;5059556;28;19909;-87
2022/11/06 04:04:42;;;;;;;;;;;13.60;53.40;;;;;;5069818;28;19917;-89
2022/11/06 04:07:09;;;;;;;;;;;13.60;53.50;;;;;;5070108;28;19973;-89
2022/11/06 04:15:12;;;;;;;;;;;13.50;53.40;;;;;;5051638;28;19925;-87
2022/11/06 04:17:38;;;;;;;;;;;13.50;53.50;;;;;;5053482;28;19908;-90
2022/11/06 04:20:17;;;;;;;;;;;;;;;;;;;;;
2022/11/06 04:22:47;;;;;;;;;;;13.60;53.50;;;;;;5071155;28;20434;-90
2022/11/06 04:28:12;;;;;;;;;;;13.80;53.40;;;;;;5070818;28;20394;-91
2022/11/06 04:30:41;;;;;;;;;;;13.70;53.60;;;;;;5070317;28;19928;-88
2022/11/06 04:33:21;;;;;;;;;;;13.80;53.40;;;;;;5052474;28;19909;-86
2022/11/06 04:35:46;;;;;;;;;;;13.90;53.20;;;;;;5074487;28;20476;-89
2022/11/06 04:38:12;;;;;;;;;;;14.00;53.00;;;;;;5074650;28;19915;-90
2022/11/06 04:40:37;;;;;;;;;;;14.00;53.00;;;;;;5072541;28;19955;-88
2022/11/06 04:43:16;;;;;;;;;;;14.00;52.90;;;;;;5064182;28;19908;-89
2022/11/06 04:45:44;;;;;;;;;;;14.10;52.70;;;;;;5061744;28;19982;-88
2022/11/06 04:48:10;;;;;;;;;;;14.10;52.60;;;;;;5084599;28;19965;-85
2022/11/06 04:50:39;;;;;;;;;;;14.10;52.50;;;;;;5085774;28;19924;-89
2022/11/06 04:53:08;;;;;;;;;;;14.10;52.40;;;;;;5082707;28;19912;-90
2022/11/06 04:55:40;;;;;;;;;;;14.00;52.30;;;;;;5067650;28;19935;-85
2022/11/06 04:58:05;;;;;;;;;;;14.00;52.40;;;;;;5060724;28;19962;-86
2022/11/06 05:00:31;;;;;;;;;;;14.00;52.30;;;;;;5065115;28;19916;-89
2022/11/06 05:02:56;;;;;;;;;;;13.90;52.30;;;;;;5073700;28;19909;-88
2022/11/06 05:05:22;;;;;;;;;;;13.80;52.40;;;;;;5067805;28;20017;-90
2022/11/06 05:07:47;;;;;;;;;;;13.80;52.60;;;;;;5071975;28;19908;-90
2022/11/06 05:10:13;;;;;;;;;;;13.70;52.70;;;;;;5058060;28;19917;-88
2022/11/06 05:12:38;;;;;;;;;;;13.60;52.90;;;;;;5067371;28;19934;-89
2022/11/06 05:15:04;;;;;;;;;;;13.60;52.90;;;;;;5063602;28;19958;-90
2022/11/06 05:17:30;;;;;;;;;;;13.50;53.00;;;;;;5057429;28;19919;-88
2022/11/06 05:19:55;;;;;;;;;;;13.50;53.10;;;;;;5070054;28;20282;-90
2022/11/06 05:25:05;;;;;;;;;;;13.40;53.30;;;;;;5073218;28;19927;-89
2022/11/06 05:27:33;;;;;;;;;;;13.40;53.50;;;;;;5058303;28;21397;-90
2022/11/06 05:29:58;;;;;;;;;;;13.50;53.50;;;;;;5051427;28;20009;-90
2022/11/06 05:32:24;;;;;;;;;;;13.40;53.60;;;;;;5055656;28;19928;-88
2022/11/06 05:34:49;;;;;;;;;;;13.50;53.50;;;;;;5069358;28;19966;-89
2022/11/06 05:37:15;;;;;;;;;;;13.50;53.50;;;;;;5074739;28;19913;-89
2022/11/06 05:39:42;;;;;;;;;;;13.40;53.50;;;;;;5070995;28;19966;-88
2022/11/06 05:42:08;;;;;;;;;;;13.40;53.40;;;;;;5071827;28;19966;-90
2022/11/06 05:44:33;;;;;;;;;;;13.40;53.50;;;;;;5068851;28;19917;-86
2022/11/06 05:46:59;;;;;;;;;;;13.30;53.60;;;;;;5053162;28;19964;-89
2022/11/06 05:49:24;;;;;;;;;;;13.30;53.70;;;;;;5060823;28;19965;-89
2022/11/06 05:51:50;;;;;;;;;;;13.30;53.70;;;;;;5056844;28;20479;-88
2022/11/06 05:54:16;;;;;;;;;;;13.30;53.60;;;;;;5051203;28;19920;-90
2022/11/06 05:56:41;;;;;;;;;;;13.30;53.80;;;;;;5053324;28;19917;-90
2022/11/06 05:59:07;;;;;;;;;;;13.20;53.80;;;;;;5051895;28;19909;-89
2022/11/06 06:01:33;;;;;;;;;;;13.20;53.90;;;;;;5058130;28;19970;-88
2022/11/06 06:03:58;;;;;;;;;;;13.10;54.10;;;;;;5061231;28;20520;-89
2022/11/06 06:06:24;;;;;;;;;;;13.10;54.20;;;;;;5065903;28;19918;-89
2022/11/06 06:08:49;;;;;;;;;;;13.10;54.20;;;;;;5058853;28;19917;-89
2022/11/06 06:11:15;;;;;;;;;;;13.10;54.30;;;;;;5078341;28;19916;-86
2022/11/06 06:13:41;;;;;;;;;;;13.10;54.30;;;;;;5065514;28;20332;-90
2022/11/06 06:16:06;;;;;;;;;;;13.10;54.40;;;;;;5063302;28;20441;-90
2022/11/06 06:18:34;;;;;;;;;;;13.10;54.40;;;;;;5067187;28;19929;-87
2022/11/06 06:20:59;;;;;;;;;;;13.00;54.40;;;;;;5060316;28;19923;-90
2022/11/06 06:23:25;;;;;;;;;;;13.10;54.30;;;;;;5084326;28;19916;-89
2022/11/06 06:25:50;;;;;;;;;;;13.10;54.50;;;;;;5075718;28;20012;-87
2022/11/06 06:28:16;;;;;;;;;;;13.10;54.80;;;;;;5071172;28;19916;-90
2022/11/06 06:30:42;;;;;;;;;;;13.10;54.70;;;;;;5075539;28;20016;-87
2022/11/06 06:33:07;;;;;;;;;;;13.10;54.70;;;;;;5072390;28;19934;-90
2022/11/06 06:35:33;;;;;;;;;;;13.10;54.60;;;;;;5070795;28;19925;-90
2022/11/06 06:37:59;;;;;;;;;;;13.10;54.60;;;;;;5070740;28;20741;-91
2022/11/06 06:40:25;;;;;;;;;;;13.20;54.50;;;;;;5070607;28;19995;-90
2022/11/06 06:42:54;;;;;;;;;;;13.20;54.50;;;;;;5065304;28;19963;-88
2022/11/06 06:45:19;;;;;;;;;;;13.20;54.50;;;;;;5054368;28;19917;-87
2022/11/06 06:47:45;;;;;;;;;;;13.20;54.50;;;;;;5052290;28;20016;-89
2022/11/06 06:50:10;;;;;;;;;;;13.20;54.50;;;;;;5070846;28;20003;-89
2022/11/06 06:52:36;;;;;;;;;;;13.20;54.90;;;;;;5070944;28;19974;-88
2022/11/06 06:55:02;;;;;;;;;;;13.40;55.50;;;;;;5070650;28;19932;-87
2022/11/06 06:57:28;;;;;;;;;;;13.70;55.50;;;;;;5074015;28;19920;-87
2022/11/06 06:59:53;;;;;;;;;;;14.00;55.20;;;;;;5081439;28;19912;-87
2022/11/06 07:02:19;;;;;;;;;;;14.40;54.90;;;;;;5072476;28;19919;-86
2022/11/06 07:04:44;;;;;;;;;;;14.70;54.20;;;;;;5071429;28;19913;-90
2022/11/06 07:07:10;;;;;;;;;;;15.10;53.70;;;;;;5070436;28;19919;-90
2022/11/06 07:09:35;;;;;;;;;;;15.50;53.00;;;;;;5072677;28;19913;-89
2022/11/06 07:12:01;;;;;;;;;;;15.80;52.30;;;;;;5071675;28;19916;-86
2022/11/06 07:14:26;;;;;;;;;;;16.10;51.50;;;;;;5070112;28;20307;-90
2022/11/06 07:16:52;;;;;;;;;;;16.30;50.10;;;;;;5069666;28;19950;-90
2022/11/06 07:19:17;;;;;;;;;;;16.70;49.30;;;;;;5068794;28;19923;-91
2022/11/06 07:21:43;;;;;;;;;;;17.10;48.70;;;;;;5057699;28;19967;-89
2022/11/06 07:24:11;;;;;;;;;;;17.30;47.60;;;;;;5056584;28;20003;-90
2022/11/06 07:26:36;;;;;;;;;;;17.50;46.70;;;;;;5073455;28;19924;-90
2022/11/06 07:29:02;;;;;;;;;;;17.90;46.20;;;;;;5069894;28;19921;-89
2022/11/06 07:31:29;;;;;;;;;;;18.10;45.60;;;;;;5063705;28;19908;-88
2022/11/06 07:33:55;;;;;;;;;;;18.40;45.10;;;;;;5069401;28;19924;-86
2022/11/06 07:36:20;;;;;;;;;;;18.60;44.30;;;;;;5069273;28;19963;-86
2022/11/06 07:38:46;;;;;;;;;;;18.70;43.40;;;;;;5057051;28;19940;-88
2022/11/06 07:41:12;;;;;;;;;;;18.60;42.60;;;;;;5072681;28;19944;-89
2022/11/06 07:43:38;;;;;;;;;;;18.40;42.40;;;;;;5062163;28;19917;-89
2022/11/06 07:46:05;;;;;;;;;;;18.00;42.60;;;;;;5062753;28;19913;-88
2022/11/06 07:48:31;;;;;;;;;;;17.90;42.90;;;;;;5068261;28;19922;-90
2022/11/06 07:50:57;;;;;;;;;;;17.80;43.20;;;;;;5065640;28;19909;-90
2022/11/06 07:53:23;;;;;;;;;;;17.70;43.40;;;;;;5069166;28;20004;-89
2022/11/06 07:55:50;;;;;;;;;;;17.70;43.70;;;;;;5067454;28;20004;-89
2022/11/06 07:58:16;;;;;;;;;;;17.70;43.90;;;;;;5053233;28;19912;-89
2022/11/06 08:00:45;;;;;;;;;;;17.70;43.90;;;;;;5071363;28;19917;-89
2022/11/06 08:03:11;;;;;;;;;;;17.50;43.80;;;;;;5056867;28;20388;-88
2022/11/06 08:05:36;;;;;;;;;;;17.30;43.80;;;;;;5059742;28;19951;-88
2022/11/06 08:08:02;;;;;;;;;;;17.20;43.90;;;;;;5065800;28;19917;-89
2022/11/06 08:10:27;;;;;;;;;;;17.00;44.10;;;;;;5062911;28;19916;-88
2022/11/06 08:12:53;;;;;;;;;;;16.90;44.30;;;;;;5074206;28;19958;-90
2022/11/06 08:15:18;;;;;;;;;;;16.90;44.40;;;;;;5061683;28;19964;-89
2022/11/06 08:17:44;;;;;;;;;;;16.80;44.60;;;;;;5058001;28;19920;-87
2022/11/06 08:20:09;;;;;;;;;;;16.70;44.90;;;;;;5067460;28;19913;-88
2022/11/06 08:22:35;;;;;;;;;;;16.60;45.10;;;;;;5088227;28;19963;-88
2022/11/06 08:25:01;;;;;;;;;;;16.50;45.50;;;;;;5057505;28;19928;-87
2022/11/06 08:27:26;;;;;;;;;;;16.50;45.90;;;;;;5060919;28;19919;-90
2022/11/06 08:29:52;;;;;;;;;;;16.60;45.80;;;;;;5064726;28;19943;-86
2022/11/06 08:32:18;;;;;;;;;;;16.70;45.70;;;;;;5063092;28;20346;-88
2022/11/06 08:34:43;;;;;;;;;;;16.60;45.40;;;;;;5078050;28;19925;-86
2022/11/06 08:37:09;;;;;;;;;;;16.60;45.40;;;;;;5063704;28;19912;-86
2022/11/06 08:39:35;;;;;;;;;;;16.50;45.50;;;;;;5062269;28;19916;-87
2022/11/06 08:42:00;;;;;;;;;;;16.50;45.60;;;;;;5067337;28;19920;-86
2022/11/06 08:44:26;;;;;;;;;;;16.40;45.90;;;;;;5078960;28;19916;-87
2022/11/06 08:46:52;;;;;;;;;;;16.70;46.50;;;;;;5072594;28;19917;-89
2022/11/06 08:49:17;;;;;;;;;;;17.10;46.30;;;;;;5067764;28;19920;-88
2022/11/06 08:51:43;;;;;;;;;;;17.70;45.90;;;;;;5073432;28;20359;-90
2022/11/06 08:54:09;;;;;;;;;;;18.20;45.00;;;;;;5064699;28;19928;-87
2022/11/06 08:56:34;;;;;;;;;;;18.60;44.30;;;;;;5070862;28;20403;-88
2022/11/06 08:59:00;;;;;;;;;;;19.00;43.10;;;;;;5070136;28;20571;-89
2022/11/06 09:01:26;;;;;;;;;;;19.30;41.90;;;;;;5064502;28;19913;-89
2022/11/06 09:03:52;;;;;;;;;;;19.60;40.80;;;;;;5064569;28;19924;-89
2022/11/06 09:06:17;;;;;;;;;;;19.90;40.30;;;;;;5068776;28;20183;-89
2022/11/06 09:08:43;;;;;;;;;;;20.20;39.50;;;;;;5071195;28;19917;-88
2022/11/06 09:11:10;;;;;;;;;;;20.30;38.80;;;;;;5069231;28;19912;-87
2022/11/06 09:13:36;;;;;;;;;;;20.60;38.70;;;;;;5073869;28;19920;-89
2022/11/06 09:16:02;;;;;;;;;;;20.80;38.40;;;;;;5072184;28;19931;-89
2022/11/06 09:18:27;;;;;;;;;;;21.20;38.30;;;;;;5072991;28;20307;-86
2022/11/06 09:20:56;;;;;;;;;;;21.30;37.70;;;;;;5076413;28;20425;-90
2022/11/06 09:23:22;;;;;;;;;;;21.50;37.10;;;;;;5068122;28;20117;-88
2022/11/06 09:25:48;;;;;;;;;;;21.70;36.50;;;;;;5065963;28;19963;-88
2022/11/06 09:28:14;;;;;;;;;;;21.70;35.70;;;;;;5059537;28;19998;-88
2022/11/06 09:30:39;;;;;;;;;;;21.80;35.70;;;;;;5075387;28;19909;-90
2022/11/06 09:33:05;;;;;;;;;;;22.00;35.80;;;;;;5058860;28;19916;-90
2022/11/06 09:35:32;;;;;;;;;;;22.10;35.60;;;;;;5053111;28;19921;-88
2022/11/06 09:38:01;;;;;;;;;;;22.30;35.60;;;;;;5062354;28;20021;-89
2022/11/06 09:40:38;;;;;;;;;;;22.50;35.60;;;;;;5062250;28;19917;-90
2022/11/06 09:43:19;;;;;;;;;;;22.70;35.10;;;;;;5061360;28;19923;-89
2022/11/06 09:45:46;;;;;;;;;;;22.60;34.60;;;;;;5060855;28;19916;-89
2022/11/06 09:48:16;;;;;;;;;;;22.40;34.50;;;;;;5057337;28;19932;-89
2022/11/06 09:51:05;;;;;;;;;;;22.40;34.70;;;;;;5057303;28;20474;-88
2022/11/06 09:53:35;;;;;;;;;;;22.30;34.50;;;;;;5052788;28;19932;-88
2022/11/06 09:56:01;;;;;;;;;;;22.00;34.40;;;;;;5071702;28;20033;-88
2022/11/06 09:58:35;;;;;;;;;;;21.70;34.60;;;;;;5066568;28;20392;-86
2022/11/06 10:01:05;;;;;;;;;;;21.70;35.10;;;;;;5069581;28;19920;-87
2022/11/06 10:03:39;;;;;;;;;;;21.80;35.40;;;;;;5070127;28;19981;-89
2022/11/06 10:06:04;;;;;;;;;;;22.00;35.00;;;;;;5073550;28;19923;-88
2022/11/06 10:08:30;;;;;;;;;;;22.30;34.90;;;;;;5061925;28;20397;-90
2022/11/06 10:11:13;;;;;;;;;;;22.40;34.30;;;;;;5065142;28;19959;-89
2022/11/06 10:14:01;;;;;;;;;;;22.70;34.50;;;;;;5058157;28;19921;-90
2022/11/06 10:16:33;;;;;;;;;;;22.60;33.60;;;;;;5060531;28;20399;-89
2022/11/06 10:19:01;;;;;;;;;;;22.40;33.40;;;;;;5059454;28;19912;-88
2022/11/06 10:21:32;;;;;;;;;;;22.20;33.40;;;;;;5061066;28;19942;-89
2022/11/06 10:24:03;;;;;;;;;;;22.10;33.70;;;;;;5063465;28;20013;-88
2022/11/06 10:26:35;;;;;;;;;;;22.10;33.90;;;;;;5062179;28;19925;-87
2022/11/06 10:29:20;;;;;;;;;;;22.20;33.90;;;;;;5058787;28;20303;-88
2022/11/06 10:32:04;;;;;;;;;;;22.40;34.00;;;;;;5061561;28;19920;-87
2022/11/06 10:34:36;;;;;;;;;;;22.40;33.60;;;;;;5063450;28;19920;-90
2022/11/06 10:37:09;;;;;;;;;;;22.70;33.80;;;;;;5059014;28;20516;-91
2022/11/06 10:39:35;;;;;;;;;;;22.70;33.20;;;;;;5063210;28;19920;-91
2022/11/06 10:42:01;;;;;;;;;;;22.70;33.00;;;;;;5060600;28;19983;-88
2022/11/06 10:44:30;;;;;;;;;;;22.80;32.90;;;;;;5065868;28;19921;-90
2022/11/06 10:47:00;;;;;;;;;;;22.90;32.80;;;;;;5064791;28;19921;-88
2022/11/06 10:49:28;;;;;;;;;;;22.90;32.60;;;;;;5062205;28;19918;-87
2022/11/06 10:52:16;;;;;;;;;;;22.70;32.60;;;;;;5062367;28;19921;-89
2022/11/06 10:54:42;;;;;;;;;;;22.50;32.90;;;;;;5063064;28;19980;-89
2022/11/06 10:57:20;;;;;;;;;;;22.30;33.10;;;;;;5052083;28;19972;-86
2022/11/06 10:59:47;;;;;;;;;;;22.20;33.50;;;;;;5050939;28;19924;-86
2022/11/06 11:02:20;;;;;;;;;;;22.30;33.70;;;;;;5055103;28;19921;-87
2022/11/06 11:04:46;;;;;;;;;;;22.20;33.30;;;;;;5059824;28;20390;-89
2022/11/06 11:07:13;;;;;;;;;;;22.00;33.30;;;;;;5066957;28;20387;-88
2022/11/06 11:09:39;;;;;;;;;;;21.90;33.50;;;;;;5064128;28;20405;-89
2022/11/06 11:12:17;;;;;;;;;;;21.70;33.70;;;;;;5054247;28;20600;-87
2022/11/06 11:14:43;;;;;;;;;;;21.60;33.90;;;;;;5055436;28;19986;-87
2022/11/06 11:17:08;;;;;;;;;;;21.30;34.00;;;;;;5055973;28;19959;-90
2022/11/06 11:19:34;;;;;;;;;;;21.00;34.40;;;;;;5056391;28;20359;-89
2022/11/06 11:22:01;;;;;;;;;;;21.00;34.80;;;;;;5066547;28;19920;-88
2022/11/06 11:24:27;;;;;;;;;;;20.80;35.20;;;;;;5047871;28;20000;-89
2022/11/06 11:26:54;;;;;;;;;;;20.70;35.40;;;;;;5047829;28;20444;-89
2022/11/06 11:29:22;;;;;;;;;;;20.60;35.70;;;;;;5047831;28;19928;-88
2022/11/06 11:31:53;;;;;;;;;;;20.50;35.90;;;;;;5046603;28;19947;-86
2022/11/06 11:34:20;;;;;;;;;;;20.40;36.10;;;;;;5060173;28;19920;-87
2022/11/06 11:36:47;;;;;;;;;;;20.30;36.20;;;;;;5066640;28;19920;-88
2022/11/06 11:39:14;;;;;;;;;;;20.40;36.40;;;;;;5061972;28;20255;-87
2022/11/06 11:41:40;;;;;;;;;;;20.50;36.50;;;;;;5055461;28;19920;-87
2022/11/06 11:44:13;;;;;;;;;;;20.70;36.50;;;;;;5061645;28;19924;-88
2022/11/06 11:46:45;;;;;;;;;;;20.70;36.20;;;;;;5063573;28;19921;-90
2022/11/06 11:49:24;;;;;;;;;;;20.70;36.20;;;;;;5063262;28;19956;-89
2022/11/06 11:51:50;;;;;;;;;;;20.60;36.30;;;;;;5054789;28;19925;-89
2022/11/06 11:54:19;;;;;;;;;;;20.50;36.40;;;;;;5057593;28;19929;-89
2022/11/06 11:56:48;;;;;;;;;;;20.50;36.50;;;;;;5055383;28;19956;-88
2022/11/06 11:59:17;;;;;;;;;;;20.40;36.50;;;;;;5056595;28;20434;-87
2022/11/06 12:01:43;;;;;;;;;;;20.30;36.50;;;;;;5058825;28;19920;-87
2022/11/06 12:04:15;;;;;;;;;;;20.30;36.70;;;;;;5059338;28;20011;-89
2022/11/06 12:06:53;;;;;;;;;;;20.30;36.80;;;;;;5069059;28;19920;-87
2022/11/06 12:09:19;;;;;;;;;;;20.30;36.90;;;;;;5069497;28;20388;-88
2022/11/06 12:11:45;;;;;;;;;;;20.30;36.80;;;;;;5055482;28;19921;-87
2022/11/06 12:14:19;;;;;;;;;;;20.50;37.00;;;;;;5052532;28;20389;-87
2022/11/06 12:16:47;;;;;;;;;;;20.70;37.00;;;;;;5056092;28;20492;-89
2022/11/06 12:19:13;;;;;;;;;;;20.80;36.80;;;;;;5070480;28;19912;-89
2022/11/06 12:21:41;;;;;;;;;;;20.80;36.50;;;;;;5063976;28;19942;-89
2022/11/06 12:24:13;;;;;;;;;;;20.70;36.40;;;;;;5055095;28;19970;-86
2022/11/06 12:26:39;;;;;;;;;;;20.50;36.30;;;;;;5062097;28;20007;-89
2022/11/06 12:29:14;;;;;;;;;;;20.40;36.60;;;;;;5055512;28;20073;-89
2022/11/06 12:31:41;;;;;;;;;;;20.30;36.70;;;;;;5066742;28;19926;-87
2022/11/06 12:34:11;;;;;;;;;;;20.20;36.80;;;;;;5071002;28;19920;-87
2022/11/06 12:36:42;;;;;;;;;;;20.00;37.00;;;;;;5060806;28;19928;-87
2022/11/06 12:39:17;;;;;;;;;;;19.90;37.20;;;;;;5054613;28;19917;-86
2022/11/06 12:41:47;;;;;;;;;;;19.90;37.20;;;;;;5050460;28;19932;-89
2022/11/06 12:44:15;;;;;;;;;;;19.90;37.40;;;;;;5053459;28;19920;-88
2022/11/06 12:46:43;;;;;;;;;;;19.90;37.60;;;;;;5065675;28;19921;-87
2022/11/06 12:49:15;;;;;;;;;;;19.90;37.80;;;;;;5058381;28;20220;-89
2022/11/06 12:51:59;;;;;;;;;;;19.80;37.90;;;;;;5049374;28;19921;-89
2022/11/06 12:54:43;;;;;;;;;;;19.80;37.90;;;;;;5059143;28;19938;-89
2022/11/06 12:57:08;;;;;;;;;;;19.60;38.10;;;;;;5068999;28;19920;-87
2022/11/06 12:59:40;;;;;;;;;;;19.50;38.20;;;;;;5068941;28;20003;-88
2022/11/06 13:02:23;;;;;;;;;;;19.50;38.30;;;;;;5070568;28;20366;-88
2022/11/06 13:05:01;;;;;;;;;;;19.60;38.50;;;;;;5069397;28;19912;-87
2022/11/06 13:07:43;;;;;;;;;;;19.60;38.40;;;;;;5069418;28;19921;-90
2022/11/06 13:10:17;;;;;;;;;;;19.50;38.40;;;;;;5070439;28;19912;-87
2022/11/06 13:12:49;;;;;;;;;;;19.60;38.40;;;;;;5068847;28;19925;-89
2022/11/06 13:15:30;;;;;;;;;;;19.50;38.40;;;;;;5072228;28;19928;-89
2022/11/06 13:18:12;;;;;;;;;;;19.60;38.40;;;;;;5068825;28;20410;-89
2022/11/06 13:20:51;;;;;;;;;;;19.60;38.50;;;;;;5071601;28;20023;-86
2022/11/06 13:23:46;;;;;;;;;;;19.50;38.60;;;;;;5069290;28;19927;-91
2022/11/06 13:26:14;;;;;;;;;;;19.40;38.60;;;;;;5057072;28;19927;-87
2022/11/06 13:28:42;;;;;;;;;;;19.30;38.80;;;;;;5069286;28;19927;-88
2022/11/06 13:31:09;;;;;;;;;;;19.30;38.90;;;;;;5068612;28;19916;-90
2022/11/06 13:33:37;;;;;;;;;;;19.20;39.10;;;;;;5070333;28;20495;-88
2022/11/06 13:36:04;;;;;;;;;;;19.10;39.20;;;;;;5069761;28;19917;-88
2022/11/06 13:38:39;;;;;;;;;;;19.10;39.30;;;;;;5069470;28;19916;-88
2022/11/06 13:41:09;;;;;;;;;;;19.10;39.30;;;;;;5053493;28;19999;-90
2022/11/06 13:43:47;;;;;;;;;;;19.10;39.40;;;;;;5061959;28;20424;-91
2022/11/06 13:46:18;;;;;;;;;;;19.20;39.50;;;;;;5050543;28;20407;-87
2022/11/06 13:48:56;;;;;;;;;;;19.20;39.60;;;;;;5048727;28;19917;-88
2022/11/06 13:51:40;;;;;;;;;;;19.20;39.50;;;;;;5049713;28;20038;-88
2022/11/06 13:54:13;;;;;;;;;;;19.20;39.40;;;;;;5049782;28;19967;-86
2022/11/06 13:56:45;;;;;;;;;;;19.00;39.40;;;;;;5049437;28;19931;-89
2022/11/06 13:59:20;;;;;;;;;;;18.90;39.60;;;;;;5053308;28;19948;-87
2022/11/06 14:02:08;;;;;;;;;;;18.90;39.70;;;;;;5058323;28;19927;-89
2022/11/06 14:05:07;;;;;;;;;;;18.80;39.80;;;;;;5057841;28;19916;-88
2022/11/06 14:07:33;;;;;;;;;;;18.80;39.90;;;;;;5049739;28;19924;-90
2022/11/06 14:09:58;;;;;;;;;;;18.70;40.20;;;;;;5056407;28;20371;-89
2022/11/06 14:12:24;;;;;;;;;;;18.60;40.20;;;;;;5070501;28;19946;-89
2022/11/06 14:14:52;;;;;;;;;;;18.60;40.30;;;;;;5070590;28;19928;-87
2022/11/06 14:17:22;;;;;;;;;;;18.60;40.30;;;;;;5070659;28;20424;-87
2022/11/06 14:19:48;;;;;;;;;;;18.60;40.40;;;;;;5069808;28;20607;-89
2022/11/06 14:22:36;;;;;;;;;;;18.50;40.40;;;;;;5073811;28;19966;-89
2022/11/06 14:25:37;;;;;;;;;;;18.40;40.50;;;;;;5069731;28;20406;-89
2022/11/06 14:28:04;;;;;;;;;;;18.40;40.50;;;;;;5043299;28;20391;-86
2022/11/06 14:30:29;;;;;;;;;;;18.40;40.50;;;;;;5064567;28;20249;-89
2022/11/06 14:32:57;;;;;;;;;;;18.40;40.40;;;;;;5071810;28;19969;-89
2022/11/06 14:35:28;;;;;;;;;;;18.40;40.30;;;;;;5069556;28;19924;-89
2022/11/06 14:38:13;;;;;;;;;;;18.40;40.30;;;;;;5064109;28;20828;-88
2022/11/06 14:40:38;;;;;;;;;;;18.30;40.20;;;;;;5064070;28;19948;-86
2022/11/06 14:43:15;;;;;;;;;;;18.30;40.10;;;;;;5050483;28;20350;-86